createdAt,value
2022-08-28T00:02:01.976Z,8.90
2022-08-28T00:04:29.726Z,4.82
2022-08-28T00:06:56.784Z,3.88
2022-08-28T00:09:24.334Z,3.78
2022-08-28T00:11:51.438Z,3.47
2022-08-28T00:14:21.122Z,3.58
2022-08-28T00:16:49.569Z,3.33
2022-08-28T00:19:24.105Z,3.63
2022-08-28T00:21:52.306Z,3.80
2022-08-28T00:24:19.415Z,2.50
2022-08-28T00:27:05.165Z,5.07
2022-08-28T00:29:32.539Z,4.15
2022-08-28T00:31:59.926Z,5.65
2022-08-28T00:34:33.002Z,4.18
2022-08-28T00:37:01.034Z,2.10
2022-08-28T00:39:28.608Z,4.57
2022-08-28T00:41:58.085Z,3.08
2022-08-28T00:44:28.295Z,3.75
2022-08-28T00:46:57.726Z,3.42
2022-08-28T00:49:28.531Z,3.67
2022-08-28T00:52:12.450Z,3.08
2022-08-28T00:54:47.839Z,3.42
2022-08-28T00:57:28.448Z,3.08
2022-08-28T00:59:55.616Z,7.80
2022-08-28T01:02:22.759Z,5.15
2022-08-28T01:04:51.049Z,2.22
2022-08-28T01:07:18.321Z,2.47
2022-08-28T01:09:49.298Z,3.63
2022-08-28T01:12:24.547Z,6.85
2022-08-28T01:14:54.992Z,2.30
2022-08-28T01:17:24.855Z,5.65
2022-08-28T01:19:57.570Z,3.08
2022-08-28T01:22:29.469Z,1.83
2022-08-28T01:25:01.044Z,1.77
2022-08-28T01:27:28.397Z,2.35
2022-08-28T01:29:55.560Z,2.05
2022-08-28T01:32:38.551Z,4.32
2022-08-28T01:35:10.621Z,3.00
2022-08-28T01:37:38.263Z,4.05
2022-08-28T01:40:07.883Z,2.85
2022-08-28T01:42:39.490Z,2.22
2022-08-28T01:45:09.877Z,3.55
2022-08-28T01:47:41.613Z,2.42
2022-08-28T01:50:10.838Z,2.85
2022-08-28T01:52:39.823Z,2.75
2022-08-28T01:55:08.325Z,2.25
2022-08-28T01:57:36.073Z,2.95
2022-08-28T02:00:03.407Z,3.35
2022-08-28T02:02:40.036Z,3.13
2022-08-28T02:05:08.823Z,3.00
2022-08-28T02:07:36.469Z,3.22
2022-08-28T02:10:06.040Z,2.63
2022-08-28T02:12:33.098Z,2.45
2022-08-28T02:15:00.690Z,5.15
2022-08-28T02:17:27.769Z,4.78
2022-08-28T02:19:54.847Z,3.47
2022-08-28T02:22:21.917Z,3.50
2022-08-28T02:24:48.931Z,4.28
2022-08-28T02:27:15.990Z,3.55
2022-08-28T02:29:44.243Z,3.85
2022-08-28T02:32:12.595Z,4.00
2022-08-28T02:34:40.538Z,3.03
2022-08-28T02:37:09.186Z,4.00
2022-08-28T02:39:37.783Z,3.50
2022-08-28T02:42:04.919Z,3.58
2022-08-28T02:44:32.259Z,6.10
2022-08-28T02:46:59.352Z,3.97
2022-08-28T02:49:26.912Z,5.35
2022-08-28T02:52:00.117Z,6.35
2022-08-28T02:54:27.172Z,4.97
2022-08-28T02:56:54.827Z,4.00
2022-08-28T02:59:22.401Z,4.82
2022-08-28T03:01:49.573Z,4.10
2022-08-28T03:04:17.289Z,3.92
2022-08-28T03:06:44.694Z,4.43
2022-08-28T03:09:11.847Z,4.75
2022-08-28T03:11:41.357Z,5.03
2022-08-28T03:14:08.585Z,4.55
2022-08-28T03:16:35.794Z,7.50
2022-08-28T03:19:04.090Z,4.38
2022-08-28T03:21:31.127Z,5.05
2022-08-28T03:23:58.280Z,4.85
2022-08-28T03:26:25.505Z,5.55
2022-08-28T03:28:54.229Z,7.70
2022-08-28T03:31:28.270Z,6.38
2022-08-28T03:33:56.121Z,5.38
2022-08-28T03:36:26.338Z,7.28
2022-08-28T03:38:54.929Z,7.32
2022-08-28T03:41:24.534Z,8.70
2022-08-28T03:43:52.217Z,6.90
2022-08-28T03:46:23.861Z,7.45
2022-08-28T03:48:52.546Z,8.13
2022-08-28T03:51:28.000Z,8.70
2022-08-28T03:53:58.405Z,7.45
2022-08-28T03:56:27.280Z,6.72
2022-08-28T03:58:57.580Z,8.77
2022-08-28T04:03:52.592Z,9.50
2022-08-28T04:06:20.263Z,9.23
2022-08-28T04:08:47.979Z,11.20
2022-08-28T04:11:15.195Z,8.45
2022-08-28T04:13:42.215Z,13.32
2022-08-28T04:16:12.559Z,10.48
2022-08-28T04:21:20.928Z,11.98
2022-08-28T04:23:48.812Z,11.47
2022-08-28T04:26:19.650Z,11.02
2022-08-28T04:28:48.039Z,13.93
2022-08-28T04:31:16.371Z,13.85
2022-08-28T04:33:43.775Z,15.00
2022-08-28T04:36:14.068Z,14.88
2022-08-28T04:41:13.808Z,16.30
2022-08-28T04:43:41.140Z,13.70
2022-08-28T04:46:12.504Z,16.00
2022-08-28T04:48:40.969Z,21.55
2022-08-28T04:51:09.931Z,15.57
2022-08-28T04:53:38.042Z,17.13
2022-08-28T04:56:08.303Z,18.58
2022-08-28T04:58:35.802Z,15.88
2022-08-28T05:01:19.038Z,15.85
2022-08-28T05:03:48.153Z,15.30
2022-08-28T05:06:16.532Z,15.23
2022-08-28T05:08:43.651Z,15.60
2022-08-28T05:11:33.383Z,14.00
2022-08-28T05:16:28.618Z,18.48
2022-08-28T05:19:00.496Z,16.27
2022-08-28T05:21:28.367Z,15.40
2022-08-28T05:23:57.698Z,19.65
2022-08-28T05:26:27.234Z,18.47
2022-08-28T05:28:56.250Z,18.08
2022-08-28T05:31:24.737Z,15.32
2022-08-28T05:33:52.987Z,20.42
2022-08-28T05:36:22.862Z,18.58
2022-08-28T05:38:53.361Z,15.10
2022-08-28T05:41:24.178Z,18.15
2022-08-28T05:43:53.241Z,17.25
2022-08-28T05:46:21.425Z,17.25
2022-08-28T05:48:49.452Z,17.27
2022-08-28T05:51:19.595Z,20.67
2022-08-28T05:53:50.123Z,19.77
2022-08-28T05:56:30.088Z,17.58
2022-08-28T05:59:01.903Z,15.98
2022-08-28T06:01:32.002Z,20.65
2022-08-28T06:04:02.073Z,15.60
2022-08-28T06:06:31.574Z,17.45
2022-08-28T06:09:00.577Z,15.53
2022-08-28T06:11:30.989Z,16.33
2022-08-28T06:14:02.448Z,19.25
2022-08-28T06:16:31.824Z,18.08
2022-08-28T06:19:01.755Z,18.80
2022-08-28T06:21:29.564Z,17.33
2022-08-28T06:23:57.115Z,19.88
2022-08-28T06:26:24.300Z,13.57
2022-08-28T06:28:52.548Z,14.30
2022-08-28T06:31:23.426Z,12.85
2022-08-28T06:33:51.385Z,13.20
2022-08-28T06:36:18.514Z,11.30
2022-08-28T06:38:46.893Z,13.00
2022-08-28T06:41:15.815Z,10.35
2022-08-28T06:43:43.265Z,9.93
2022-08-28T06:46:10.399Z,10.73
2022-08-28T06:48:37.725Z,10.25
2022-08-28T06:51:10.316Z,10.05
2022-08-28T06:53:43.170Z,10.85
2022-08-28T06:56:25.751Z,11.85
2022-08-28T06:58:56.920Z,11.73
2022-08-28T07:01:30.269Z,14.45
2022-08-28T07:04:15.693Z,14.13
2022-08-28T07:06:47.064Z,14.45
2022-08-28T07:09:14.820Z,12.32
2022-08-28T07:11:46.980Z,12.98
2022-08-28T07:14:14.131Z,13.20
2022-08-28T07:16:41.389Z,14.55
2022-08-28T07:19:10.592Z,13.35
2022-08-28T07:21:40.132Z,14.52
2022-08-28T07:24:09.670Z,16.03
2022-08-28T07:26:37.607Z,20.33
2022-08-28T07:29:09.917Z,15.23
2022-08-28T07:31:41.568Z,17.77
2022-08-28T07:34:10.734Z,16.02
2022-08-28T07:36:38.644Z,15.57
2022-08-28T07:39:06.897Z,17.05
2022-08-28T07:41:37.741Z,17.45
2022-08-28T07:44:24.109Z,15.95
2022-08-28T07:46:59.290Z,16.67
2022-08-28T07:49:27.493Z,15.00
2022-08-28T07:51:54.753Z,17.00
2022-08-28T07:54:23.113Z,17.92
2022-08-28T07:56:50.809Z,19.15
2022-08-28T07:59:19.113Z,21.98
2022-08-28T08:01:48.429Z,18.67
2022-08-28T08:04:17.380Z,17.10
2022-08-28T08:06:45.470Z,21.65
2022-08-28T08:09:16.195Z,16.83
2022-08-28T08:11:43.376Z,18.05
2022-08-28T08:14:11.504Z,16.52
2022-08-28T08:16:43.811Z,19.40
2022-08-28T08:19:15.423Z,17.88
2022-08-28T08:21:53.917Z,19.92
2022-08-28T08:24:26.204Z,18.27
2022-08-28T08:26:59.978Z,18.60
2022-08-28T08:29:30.112Z,20.58
2022-08-28T08:32:06.035Z,20.30
2022-08-28T08:34:36.718Z,20.60
2022-08-28T08:37:05.916Z,17.05
2022-08-28T08:39:37.264Z,19.50
2022-08-28T08:42:07.774Z,18.13
2022-08-28T08:44:43.656Z,16.20
2022-08-28T08:47:38.798Z,21.20
2022-08-28T08:50:20.657Z,19.40
2022-08-28T08:53:05.846Z,16.73
2022-08-28T08:55:54.217Z,21.75
2022-08-28T08:58:47.932Z,17.20
2022-08-28T09:01:25.833Z,17.67
2022-08-28T09:04:09.233Z,18.90
2022-08-28T09:06:52.068Z,20.48
2022-08-28T09:09:42.088Z,19.17
2022-08-28T09:12:15.602Z,16.83
2022-08-28T09:15:05.434Z,18.33
2022-08-28T09:17:37.753Z,15.32
2022-08-28T09:20:10.432Z,19.67
2022-08-28T09:22:42.311Z,14.63
2022-08-28T09:25:12.426Z,16.90
2022-08-28T09:27:52.854Z,17.13
2022-08-28T09:30:31.615Z,16.38
2022-08-28T09:33:01.405Z,18.88
2022-08-28T09:35:35.318Z,15.13
2022-08-28T09:38:27.658Z,15.68
2022-08-28T09:41:47.465Z,18.70
2022-08-28T09:44:15.469Z,19.13
2022-08-28T09:46:50.332Z,16.85
2022-08-28T09:49:25.174Z,18.35
2022-08-28T09:51:52.299Z,17.02
2022-08-28T09:54:25.993Z,14.77
2022-08-28T09:56:53.734Z,23.48
2022-08-28T09:59:24.043Z,17.90
2022-08-28T10:02:11.678Z,19.02
2022-08-28T10:04:57.785Z,17.40
2022-08-28T10:07:57.906Z,16.52
2022-08-28T10:10:54.418Z,16.63
2022-08-28T10:13:39.729Z,16.17
2022-08-28T10:16:33.685Z,20.42
2022-08-28T10:19:28.435Z,17.88
2022-08-28T10:22:07.380Z,15.35
2022-08-28T10:25:11.577Z,17.15
2022-08-28T10:28:16.663Z,22.35
2022-08-28T10:31:09.725Z,16.20
2022-08-28T10:33:51.903Z,15.95
2022-08-28T10:36:34.032Z,16.30
2022-08-28T10:39:40.223Z,16.15
2022-08-28T10:42:07.931Z,14.90
2022-08-28T10:44:55.219Z,15.82
2022-08-28T10:47:25.859Z,13.85
2022-08-28T10:50:01.931Z,14.70
2022-08-28T10:53:00.396Z,15.68
2022-08-28T10:56:02.952Z,14.68
2022-08-28T10:58:35.928Z,15.52
2022-08-28T11:01:10.094Z,14.32
2022-08-28T11:03:48.074Z,14.27
2022-08-28T11:06:27.152Z,14.40
2022-08-28T11:08:58.856Z,13.93
2022-08-28T11:11:48.810Z,13.98
2022-08-28T11:14:47.581Z,15.80
2022-08-28T11:17:27.941Z,13.48
2022-08-28T11:20:13.319Z,16.33
2022-08-28T11:23:15.832Z,16.27
2022-08-28T11:25:59.051Z,15.40
2022-08-28T11:28:26.189Z,17.35
2022-08-28T11:31:05.378Z,13.43
2022-08-28T11:33:41.523Z,14.03
2022-08-28T11:36:13.077Z,14.48
2022-08-28T11:38:41.687Z,16.58
2022-08-28T11:41:15.874Z,13.20
2022-08-28T11:43:45.169Z,13.63
2022-08-28T11:46:46.304Z,13.70
2022-08-28T11:49:32.232Z,12.93
2022-08-28T11:52:41.105Z,14.63
2022-08-28T11:55:32.353Z,12.73
2022-08-28T11:58:25.383Z,11.40
2022-08-28T12:00:55.275Z,13.85
2022-08-28T12:03:40.555Z,14.43
2022-08-28T12:06:08.849Z,13.23
2022-08-28T12:08:45.217Z,13.95
2022-08-28T12:11:41.553Z,12.68
2022-08-28T12:14:41.116Z,13.05
2022-08-28T12:17:17.322Z,11.57
2022-08-28T12:19:56.165Z,14.52
2022-08-28T12:22:39.602Z,13.00
2022-08-28T12:25:15.517Z,15.68
2022-08-28T12:27:42.963Z,12.80
2022-08-28T12:30:10.155Z,12.57
2022-08-28T12:32:42.855Z,11.88
2022-08-28T12:35:20.769Z,13.57
2022-08-28T12:37:54.273Z,10.75
2022-08-28T12:40:21.529Z,11.23
2022-08-28T12:42:55.458Z,10.57
2022-08-28T12:45:51.409Z,10.77
2022-08-28T12:48:18.542Z,11.98
2022-08-28T12:50:45.752Z,11.30
2022-08-28T12:53:16.917Z,12.88
2022-08-28T12:55:46.596Z,11.27
2022-08-28T12:58:28.119Z,12.48
2022-08-28T13:01:21.427Z,13.70
2022-08-28T13:03:53.422Z,15.13
2022-08-28T13:06:40.971Z,14.27
2022-08-28T13:09:16.859Z,13.13
2022-08-28T13:11:51.691Z,15.52
2022-08-28T13:14:44.878Z,14.15
2022-08-28T13:17:14.392Z,16.45
2022-08-28T13:19:41.925Z,15.38
2022-08-28T13:22:34.427Z,16.25
2022-08-28T13:25:03.511Z,12.73
2022-08-28T13:27:30.804Z,11.35
2022-08-28T13:30:25.306Z,15.65
2022-08-28T13:32:57.597Z,13.15
2022-08-28T13:35:25.484Z,9.43
2022-08-28T13:38:02.327Z,12.25
2022-08-28T13:43:30.732Z,10.25
2022-08-28T13:45:58.347Z,11.27
2022-08-28T13:48:27.406Z,11.15
2022-08-28T13:51:10.409Z,9.95
2022-08-28T13:53:38.867Z,9.55
2022-08-28T13:56:07.111Z,7.95
2022-08-28T13:58:34.162Z,9.07
2022-08-28T14:01:02.541Z,11.38
2022-08-28T14:03:39.485Z,8.80
2022-08-28T14:06:11.835Z,11.10
2022-08-28T14:08:41.382Z,10.32
2022-08-28T14:11:12.919Z,10.68
2022-08-28T14:13:47.020Z,11.32
2022-08-28T14:16:25.105Z,11.30
2022-08-28T14:18:53.007Z,12.32
2022-08-28T14:21:20.894Z,10.20
2022-08-28T14:23:47.949Z,9.93
2022-08-28T14:26:14.973Z,13.85
2022-08-28T14:28:42.506Z,14.02
2022-08-28T14:31:14.271Z,8.82
2022-08-28T14:33:45.056Z,11.38
2022-08-28T14:36:24.796Z,11.45
2022-08-28T14:38:54.398Z,10.70
2022-08-28T14:41:25.549Z,11.82
2022-08-28T14:43:53.951Z,9.57
2022-08-28T14:46:24.523Z,10.32
2022-08-28T14:48:52.039Z,8.73
2022-08-28T14:51:19.406Z,13.20
2022-08-28T14:53:47.409Z,9.50
2022-08-28T14:56:14.940Z,9.85
2022-08-28T14:58:42.064Z,9.10
2022-08-28T15:01:09.453Z,9.65
2022-08-28T15:03:37.017Z,10.40
2022-08-28T15:06:09.992Z,12.43
2022-08-28T15:08:37.908Z,11.70
2022-08-28T15:11:09.949Z,11.82
2022-08-28T15:13:37.990Z,11.10
2022-08-28T15:16:15.611Z,14.15
2022-08-28T15:18:45.733Z,12.68
2022-08-28T15:21:42.195Z,10.90
2022-08-28T15:24:10.171Z,12.32
2022-08-28T15:26:38.111Z,11.60
2022-08-28T15:29:07.276Z,11.88
2022-08-28T15:31:41.385Z,12.38
2022-08-28T15:34:13.564Z,14.55
2022-08-28T15:36:42.640Z,11.25
2022-08-28T15:39:29.630Z,11.65
2022-08-28T15:41:57.752Z,11.48
2022-08-28T15:44:24.835Z,10.15
2022-08-28T15:46:58.116Z,12.55
2022-08-28T15:49:27.096Z,11.27
2022-08-28T15:51:54.133Z,12.82
2022-08-28T15:54:22.809Z,11.98
2022-08-28T15:56:52.712Z,9.82
2022-08-28T15:59:21.521Z,14.23
2022-08-28T16:01:51.198Z,10.98
2022-08-28T16:04:18.457Z,9.80
2022-08-28T16:06:46.159Z,14.05
2022-08-28T16:09:13.886Z,12.55
2022-08-28T16:11:43.965Z,9.75
2022-08-28T16:14:14.382Z,13.27
2022-08-28T16:16:49.067Z,12.40
2022-08-28T16:19:18.040Z,11.90
2022-08-28T16:21:45.186Z,14.43
2022-08-28T16:24:14.605Z,10.60
2022-08-28T16:26:41.679Z,11.20
2022-08-28T16:29:08.765Z,10.43
2022-08-28T16:31:36.080Z,15.55
2022-08-28T16:34:04.369Z,9.77
2022-08-28T16:36:32.002Z,11.38
2022-08-28T16:39:00.551Z,9.45
2022-08-28T16:41:32.201Z,10.45
2022-08-28T16:43:59.420Z,11.52
2022-08-28T16:46:28.046Z,11.70
2022-08-28T16:48:55.361Z,13.50
2022-08-28T16:51:26.894Z,10.88
2022-08-28T16:53:54.543Z,12.63
2022-08-28T16:56:23.930Z,10.63
2022-08-28T16:58:53.124Z,12.70
2022-08-28T17:01:24.035Z,9.85
2022-08-28T17:03:53.439Z,11.35
2022-08-28T17:06:24.510Z,12.10
2022-08-28T17:08:56.724Z,11.40
2022-08-28T17:11:26.320Z,12.45
2022-08-28T17:13:53.752Z,12.32
2022-08-28T17:16:22.124Z,10.18
2022-08-28T17:18:52.413Z,10.95
2022-08-28T17:21:41.022Z,11.23
2022-08-28T17:24:09.729Z,12.48
2022-08-28T17:26:36.745Z,10.88
2022-08-28T17:29:05.034Z,12.57
2022-08-28T17:31:32.482Z,12.10
2022-08-28T17:33:59.683Z,11.48
2022-08-28T17:36:33.195Z,12.27
2022-08-28T17:39:04.226Z,10.48
2022-08-28T17:41:33.902Z,12.18
2022-08-28T17:44:02.664Z,9.95
2022-08-28T17:46:33.974Z,13.15
2022-08-28T17:49:05.079Z,11.63
2022-08-28T17:51:42.161Z,11.73
2022-08-28T17:54:15.874Z,14.25
2022-08-28T17:56:43.177Z,11.93
2022-08-28T17:59:11.656Z,12.65
2022-08-28T18:01:39.367Z,10.88
2022-08-28T18:04:07.150Z,12.13
2022-08-28T18:06:35.126Z,13.60
2022-08-28T18:09:02.278Z,12.68
2022-08-28T18:11:29.386Z,12.07
2022-08-28T18:13:56.961Z,12.23
2022-08-28T18:16:28.890Z,10.85
2022-08-28T18:18:58.889Z,10.70
2022-08-28T18:21:26.017Z,12.73
2022-08-28T18:23:53.107Z,14.25
2022-08-28T18:26:20.448Z,14.68
2022-08-28T18:28:47.664Z,10.65
2022-08-28T18:31:14.944Z,11.77
2022-08-28T18:33:42.108Z,12.43
2022-08-28T18:36:12.190Z,14.13
2022-08-28T18:38:40.246Z,14.95
2022-08-28T18:41:08.665Z,11.05
2022-08-28T18:43:36.884Z,13.50
2022-08-28T18:46:05.929Z,14.10
2022-08-28T18:48:33.300Z,14.35
2022-08-28T18:51:00.652Z,11.93
2022-08-28T18:53:29.065Z,16.60
2022-08-28T18:55:56.344Z,15.88
2022-08-28T18:58:27.925Z,14.63
2022-08-28T19:00:55.394Z,14.43
2022-08-28T19:03:23.017Z,12.95
2022-08-28T19:05:52.022Z,13.02
2022-08-28T19:08:19.205Z,15.30
2022-08-28T19:10:46.805Z,12.90
2022-08-28T19:13:14.203Z,16.58
2022-08-28T19:15:41.712Z,15.73
2022-08-28T19:18:09.113Z,16.85
2022-08-28T19:20:36.211Z,14.25
2022-08-28T19:23:03.320Z,14.20
2022-08-28T19:25:31.236Z,16.73
2022-08-28T19:28:00.266Z,17.02
2022-08-28T19:30:33.746Z,14.82
2022-08-28T19:33:04.404Z,13.35
2022-08-28T19:35:31.886Z,16.23
2022-08-28T19:37:59.054Z,12.82
2022-08-28T19:40:27.492Z,16.65
2022-08-28T19:42:54.885Z,16.98
2022-08-28T19:45:22.443Z,16.75
2022-08-28T19:47:49.528Z,16.75
2022-08-28T19:50:16.937Z,15.63
2022-08-28T19:52:45.488Z,16.10
2022-08-28T19:55:25.603Z,14.68
2022-08-28T19:57:53.178Z,15.48
2022-08-28T20:00:29.362Z,15.95
2022-08-28T20:02:57.402Z,13.98
2022-08-28T20:05:25.165Z,16.75
2022-08-28T20:07:52.477Z,16.25
2022-08-28T20:10:19.866Z,17.80
2022-08-28T20:12:48.563Z,16.10
2022-08-28T20:15:17.902Z,14.70
2022-08-28T20:17:50.024Z,13.43
2022-08-28T20:20:24.589Z,18.42
2022-08-28T20:22:54.344Z,16.02
2022-08-28T20:25:21.908Z,13.15
2022-08-28T20:27:49.010Z,14.43
2022-08-28T20:30:17.235Z,14.90
2022-08-28T20:32:44.343Z,13.90
2022-08-28T20:35:13.313Z,19.45
2022-08-28T20:37:45.593Z,17.98
2022-08-28T20:40:18.805Z,14.77
2022-08-28T20:42:46.744Z,14.15
2022-08-28T20:45:15.459Z,15.40
2022-08-28T20:47:42.957Z,15.30
2022-08-28T20:50:11.246Z,17.38
2022-08-28T20:52:38.751Z,13.82
2022-08-28T20:55:08.142Z,15.30
2022-08-28T20:57:35.834Z,16.58
2022-08-28T21:00:08.039Z,17.45
2022-08-28T21:02:35.998Z,16.42
2022-08-28T21:05:03.907Z,16.00
2022-08-28T21:07:31.379Z,17.23
2022-08-28T21:10:05.679Z,16.65
2022-08-28T21:12:39.237Z,16.05
2022-08-28T21:15:09.322Z,15.68
2022-08-28T21:17:36.803Z,15.23
2022-08-28T21:20:10.478Z,15.60
2022-08-28T21:22:38.369Z,16.48
2022-08-28T21:25:08.550Z,17.80
2022-08-28T21:27:36.514Z,13.63
2022-08-28T21:30:05.695Z,16.65
2022-08-28T21:32:34.364Z,16.33
2022-08-28T21:35:03.582Z,15.00
2022-08-28T21:37:31.297Z,19.33
2022-08-28T21:39:59.693Z,16.77
2022-08-28T21:42:28.198Z,15.30
2022-08-28T21:44:55.675Z,12.25
2022-08-28T21:47:23.983Z,16.65
2022-08-28T21:49:54.454Z,13.10
2022-08-28T21:52:23.671Z,14.18
2022-08-28T21:54:56.459Z,13.45
2022-08-28T21:57:24.925Z,12.80
2022-08-28T21:59:52.150Z,12.57
2022-08-28T22:02:19.391Z,13.95
2022-08-28T22:04:46.752Z,14.25
2022-08-28T22:07:14.258Z,13.30
2022-08-28T22:09:41.546Z,15.00
2022-08-28T22:12:09.358Z,15.45
2022-08-28T22:14:36.934Z,16.55
2022-08-28T22:17:10.182Z,14.27
2022-08-28T22:19:38.766Z,13.38
2022-08-28T22:22:24.366Z,13.68
2022-08-28T22:24:51.730Z,11.15
2022-08-28T22:27:19.014Z,12.82
2022-08-28T22:29:46.175Z,13.38
2022-08-28T22:32:13.293Z,13.55
2022-08-28T22:34:43.247Z,13.98
2022-08-28T22:37:14.622Z,13.43
2022-08-28T22:39:43.181Z,12.80
2022-08-28T22:42:10.576Z,11.95
2022-08-28T22:44:38.608Z,13.10
2022-08-28T22:47:06.464Z,13.80
2022-08-28T22:49:34.051Z,12.25
2022-08-28T22:52:03.841Z,12.00
2022-08-28T22:54:33.618Z,11.23
2022-08-28T22:57:00.894Z,12.52
2022-08-28T22:59:31.682Z,12.60
2022-08-28T23:01:58.946Z,12.52
2022-08-28T23:04:26.665Z,11.93
2022-08-28T23:06:53.914Z,10.48
2022-08-28T23:09:21.006Z,11.27
2022-08-28T23:11:49.614Z,9.63
2022-08-28T23:14:16.988Z,8.82
2022-08-28T23:16:44.292Z,10.68
2022-08-28T23:19:13.372Z,10.10
2022-08-28T23:21:43.512Z,10.88
2022-08-28T23:26:38.856Z,10.63
2022-08-28T23:29:06.013Z,15.60
2022-08-28T23:31:33.163Z,10.80
2022-08-28T23:34:00.415Z,12.18
2022-08-28T23:36:27.577Z,13.50
2022-08-28T23:38:54.902Z,13.18
2022-08-28T23:41:22.266Z,15.30
2022-08-28T23:43:49.370Z,13.88
2022-08-28T23:46:18.148Z,13.32
2022-08-28T23:48:46.205Z,11.80
2022-08-28T23:51:17.423Z,10.52
2022-08-28T23:53:45.800Z,12.52
2022-08-28T23:56:14.875Z,12.18
2022-08-28T23:58:43.080Z,10.63
